createdAt,value
2023-02-18T00:07:24.193Z,8.30
2023-02-18T00:17:31.942Z,4.90
2023-02-18T00:27:39.041Z,5.30
2023-02-18T00:37:46.652Z,2.90
2023-02-18T00:47:53.602Z,3.80
2023-02-18T00:58:00.764Z,3.20
2023-02-18T01:08:06.600Z,2.90
2023-02-18T01:18:14.764Z,3.10
2023-02-18T01:28:21.809Z,3.50
2023-02-18T01:38:28.905Z,4.40
2023-02-18T01:48:39.525Z,5.50
2023-02-18T01:58:47.480Z,6.00
2023-02-18T02:08:59.732Z,2.90
2023-02-18T02:19:08.002Z,1.70
2023-02-18T02:29:50.834Z,2.90
2023-02-18T02:40:04.232Z,3.60
2023-02-18T02:50:16.050Z,5.60
2023-02-18T03:00:24.840Z,8.60
2023-02-18T03:10:40.364Z,2.80
2023-02-18T03:20:52.303Z,2.00
2023-02-18T03:31:02.268Z,3.00
2023-02-18T03:41:09.794Z,2.90
2023-02-18T03:51:15.936Z,0.80
2023-02-18T04:01:23.663Z,1.80
2023-02-18T04:11:30.934Z,3.10
2023-02-18T04:21:38.240Z,2.50
2023-02-18T04:31:45.537Z,5.70
2023-02-18T04:41:52.904Z,6.60
2023-02-18T04:52:00.699Z,4.60
2023-02-18T05:02:08.188Z,2.50
2023-02-18T05:12:15.658Z,1.00
2023-02-18T05:22:22.847Z,2.40
2023-02-18T05:32:29.975Z,2.30
2023-02-18T05:42:37.472Z,0.90
2023-02-18T05:52:44.607Z,2.10
2023-02-18T06:02:51.578Z,5.70
2023-02-18T06:13:00.298Z,3.20
2023-02-18T06:23:07.678Z,2.80
2023-02-18T06:33:15.417Z,3.60
2023-02-18T06:43:23.472Z,1.40
2023-02-18T06:53:30.546Z,3.70
2023-02-18T07:03:37.758Z,9.00
2023-02-18T07:13:44.785Z,9.30
2023-02-18T07:23:52.370Z,9.40
2023-02-18T07:33:59.993Z,10.00
2023-02-18T07:44:05.567Z,5.60
2023-02-18T07:54:10.048Z,11.90
2023-02-18T08:04:17.381Z,6.20
2023-02-18T08:14:24.857Z,4.40
2023-02-18T08:24:32.335Z,7.10
2023-02-18T08:34:39.591Z,6.30
2023-02-18T08:44:45.761Z,12.70
2023-02-18T08:54:52.936Z,9.60
2023-02-18T09:05:00.175Z,11.80
2023-02-18T09:15:06.448Z,11.20
2023-02-18T09:25:12.438Z,8.40
2023-02-18T09:35:18.361Z,5.70
2023-02-18T09:45:26.741Z,5.80
2023-02-18T09:55:38.983Z,8.40
2023-02-18T10:05:44.056Z,7.90
2023-02-18T10:15:53.039Z,8.70
2023-02-18T10:26:03.925Z,6.90
2023-02-18T10:36:28.942Z,8.80
2023-02-18T10:46:34.995Z,6.50
2023-02-18T10:56:43.927Z,6.40
2023-02-18T11:06:53.059Z,7.10
2023-02-18T11:17:10.590Z,3.30
2023-02-18T11:27:18.360Z,8.20
2023-02-18T11:37:28.477Z,5.10
2023-02-18T11:47:37.829Z,6.80
2023-02-18T11:57:48.921Z,28.00
2023-02-18T12:07:57.340Z,10.30
2023-02-18T12:18:26.820Z,8.20
2023-02-18T12:38:46.436Z,3.70
2023-02-18T12:49:02.166Z,6.00
2023-02-18T12:59:07.305Z,6.30
2023-02-18T13:09:12.592Z,5.10
2023-02-18T13:19:19.788Z,9.30
2023-02-18T13:29:33.841Z,12.20
2023-02-18T13:39:49.289Z,8.00
2023-02-18T13:49:56.638Z,15.80
2023-02-18T14:00:08.126Z,24.10
2023-02-18T14:10:26.806Z,19.40
2023-02-18T14:20:46.971Z,69.60
2023-02-18T14:30:55.031Z,86.00
2023-02-18T14:41:40.483Z,23.50
2023-02-18T14:51:49.433Z,17.10
2023-02-18T15:01:55.491Z,12.20
2023-02-18T15:12:00.144Z,14.80
2023-02-18T15:22:07.632Z,15.60
2023-02-18T15:32:16.457Z,20.60
2023-02-18T15:42:24.796Z,18.70
2023-02-18T15:52:34.676Z,21.00
2023-02-18T16:02:51.578Z,23.50
2023-02-18T16:13:00.707Z,20.50
2023-02-18T16:23:15.077Z,19.50
2023-02-18T16:33:22.390Z,24.00
2023-02-18T16:43:30.241Z,25.00
2023-02-18T16:53:37.551Z,12.50
2023-02-18T17:03:46.300Z,20.20
2023-02-18T17:13:58.334Z,20.20
2023-02-18T17:24:04.409Z,21.20
2023-02-18T17:34:15.696Z,12.90
2023-02-18T17:44:24.844Z,17.80
2023-02-18T17:54:32.160Z,10.60
2023-02-18T18:04:39.351Z,8.00
2023-02-18T18:14:46.509Z,6.40
2023-02-18T18:24:56.353Z,6.20
2023-02-18T18:35:03.643Z,6.60
2023-02-18T18:45:17.328Z,6.70
2023-02-18T18:55:59.645Z,4.80
2023-02-18T19:06:07.651Z,3.60
2023-02-18T19:16:14.496Z,14.30
2023-02-18T19:26:20.899Z,7.70
2023-02-18T19:36:28.200Z,5.80
2023-02-18T19:46:35.754Z,15.00
2023-02-18T19:56:42.866Z,7.90
2023-02-18T20:06:50.162Z,5.60
2023-02-18T20:16:56.342Z,5.10
2023-02-18T20:27:03.947Z,3.80
2023-02-18T20:37:11.144Z,6.00
2023-02-18T20:47:18.824Z,3.70
2023-02-18T20:57:26.418Z,4.90
2023-02-18T21:07:34.360Z,4.60
2023-02-18T21:17:41.537Z,6.70
2023-02-18T21:27:48.588Z,15.10
2023-02-18T21:37:55.927Z,7.50
2023-02-18T21:48:06.346Z,6.20
2023-02-18T21:58:13.638Z,9.00
2023-02-18T22:08:21.425Z,13.60
2023-02-18T22:18:32.120Z,10.90
2023-02-18T22:28:39.923Z,7.90
2023-02-18T22:38:47.213Z,9.10
2023-02-18T22:48:55.954Z,11.80
2023-02-18T22:59:03.068Z,15.40
2023-02-18T23:09:14.457Z,14.10
2023-02-18T23:19:22.133Z,9.80
2023-02-18T23:29:29.253Z,11.90
2023-02-18T23:39:37.021Z,7.20
2023-02-18T23:49:44.141Z,8.60
2023-02-18T23:59:51.034Z,8.30
